Time;durP1;ratioP1;P1;durP2;ratioP2;P2;SDS_P1;SDS_P2;PMS_P1;PMS_P2;Temp;Humidity;BMP_temperature;BMP_pressure;BME280_temperature;BME280_humidity;BME280_pressure;Samples;Min_cycle;Max_cycle;Signal;HPM_P1;HPM_P2
2022/07/24 00:02:13;;;;;;;10.83;9.87;;;;;;;;;;5045525;28;20956;-55
2022/07/24 00:04:39;;;;;;;11.00;10.10;;;20.60;1.00;;;;;;5051721;28;20521;-56
2022/07/24 00:07:04;;;;;;;11.13;10.13;;;20.80;1.00;;;;;;5054338;28;21010;-54
2022/07/24 00:09:30;;;;;;;10.60;9.70;;;20.70;1.00;;;;;;5049773;28;20250;-57
2022/07/24 00:11:57;;;;;;;9.67;8.87;;;;;;;;;;5060261;28;20258;-55
2022/07/24 00:14:23;;;;;;;9.57;8.67;;;;;;;;;;5046124;28;20488;-55
2022/07/24 00:16:49;;;;;;;10.67;9.77;;;;;;;;;;5050904;28;20446;-56
2022/07/24 00:19:15;;;;;;;10.30;9.10;;;;;;;;;;5051398;28;20454;-56
2022/07/24 00:21:40;;;;;;;10.60;9.50;;;20.50;1.00;;;;;;5048518;28;20854;-56
2022/07/24 00:24:06;;;;;;;10.60;9.50;;;20.30;1.00;;;;;;5055210;28;20450;-56
2022/07/24 00:26:32;;;;;;;10.37;9.20;;;;;;;;;;5050047;28;20239;-56
2022/07/24 00:28:58;;;;;;;9.43;8.53;;;;;;;;;;5052267;28;20184;-55
2022/07/24 00:31:24;;;;;;;9.70;8.87;;;;;;;;;;5050312;28;20442;-56
2022/07/24 00:33:50;;;;;;;10.00;9.00;;;20.40;1.00;;;;;;5050139;28;20499;-56
2022/07/24 00:36:16;;;;;;;11.17;10.07;;;20.10;1.00;;;;;;5049013;28;20529;-56
2022/07/24 00:38:42;;;;;;;10.37;9.33;;;;;;;;;;5043454;28;20214;-56
2022/07/24 00:41:08;;;;;;;9.50;8.33;;;;;;;;;;5049166;28;20443;-56
2022/07/24 00:43:34;;;;;;;10.27;9.37;;;;;;;;;;5049153;28;20509;-56
2022/07/24 00:46:00;;;;;;;8.67;7.90;;;19.80;1.00;;;;;;5050029;28;20438;-57
2022/07/24 00:48:25;;;;;;;12.03;10.00;;;20.30;1.00;;;;;;5052720;28;20460;-57
2022/07/24 00:50:52;;;;;;;9.50;8.60;;;;;;;;;;5050026;28;20180;-57
2022/07/24 00:53:18;;;;;;;9.97;9.07;;;;;;;;;;5049882;28;20558;-56
2022/07/24 00:55:44;;;;;;;10.10;9.10;;;20.40;1.00;;;;;;5050710;28;20457;-55
2022/07/24 00:58:11;;;;;;;10.23;9.03;;;;;;;;;;5048923;28;20454;-56
2022/07/24 01:00:36;;;;;;;10.53;9.63;;;20.00;1.00;;;;;;5049803;28;20507;-56
2022/07/24 01:03:02;;;;;;;9.87;8.90;;;20.00;1.00;;;;;;5049655;28;20458;-56
2022/07/24 01:05:28;;;;;;;9.00;8.20;;;19.90;1.00;;;;;;5047611;28;20767;-55
2022/07/24 01:07:54;;;;;;;9.10;8.30;;;;;;;;;;5051774;28;20180;-56
2022/07/24 01:10:19;;;;;;;9.37;8.47;;;19.80;1.00;;;;;;5048257;28;20279;-56
2022/07/24 01:12:45;;;;;;;9.90;9.00;;;19.90;1.00;;;;;;5047134;28;20495;-56
2022/07/24 01:15:11;;;;;;;7.70;7.00;;;19.80;1.00;;;;;;5049800;28;20188;-56
2022/07/24 01:17:40;;;;;;;11.80;7.93;;;19.40;1.00;;;;;;5047277;28;20192;-56
2022/07/24 01:20:07;;;;;;;8.73;7.93;;;19.80;1.00;;;;;;5050653;28;20446;-56
2022/07/24 01:22:33;;;;;;;10.13;9.10;;;;;;;;;;5049324;28;20843;-56
2022/07/24 01:24:59;;;;;;;10.63;9.53;;;19.80;1.00;;;;;;5047757;28;20449;-56
2022/07/24 01:27:25;;;;;;;13.83;9.10;;;;;;;;;;5049333;28;20443;-55
2022/07/24 01:29:51;;;;;;;10.67;9.47;;;19.60;1.00;;;;;;5048068;28;20210;-56
2022/07/24 01:32:17;;;;;;;9.93;9.03;;;19.60;1.00;;;;;;5049819;28;20482;-56
2022/07/24 01:34:43;;;;;;;9.80;8.80;;;19.70;1.00;;;;;;5050869;28;20465;-56
2022/07/24 01:37:09;;;;;;;10.57;8.70;;;19.70;1.00;;;;;;5049962;28;20265;-56
2022/07/24 01:39:35;;;;;;;10.23;9.17;;;;;;;;;;5049230;28;20642;-55
2022/07/24 01:42:00;;;;;;;10.70;9.37;;;19.40;1.00;;;;;;5049818;28;20203;-56
2022/07/24 01:44:26;;;;;;;11.00;10.10;;;19.50;1.00;;;;;;5050955;28;20508;-57
2022/07/24 01:46:51;;;;;;;12.47;9.97;;;19.50;1.00;;;;;;5050221;28;20628;-55
2022/07/24 01:49:17;;;;;;;11.47;10.27;;;;;;;;;;5049160;28;20195;-56
2022/07/24 01:51:43;;;;;;;11.27;10.17;;;;;;;;;;5048638;28;20563;-56
2022/07/24 01:54:09;;;;;;;10.63;9.73;;;19.40;1.00;;;;;;5050113;28;20500;-56
2022/07/24 01:56:35;;;;;;;10.20;9.40;;;;;;;;;;5050017;28;20446;-56
2022/07/24 01:59:00;;;;;;;11.17;10.27;;;19.10;1.00;;;;;;5046729;28;20226;-56
2022/07/24 02:01:26;;;;;;;10.27;9.33;;;19.30;1.00;;;;;;5048010;28;20458;-56
2022/07/24 02:03:52;;;;;;;10.67;9.57;;;19.30;1.00;;;;;;5049548;28;20211;-56
2022/07/24 02:06:18;;;;;;;11.07;10.07;;;19.50;1.00;;;;;;5047760;28;20876;-55
2022/07/24 02:08:44;;;;;;;11.60;10.27;;;19.10;1.00;;;;;;5050621;28;20450;-56
2022/07/24 02:11:10;;;;;;;9.90;8.90;;;;;;;;;;5047654;28;20701;-56
2022/07/24 02:13:35;;;;;;;11.53;9.93;;;18.80;1.00;;;;;;5049762;28;20241;-57
2022/07/24 02:16:01;;;;;;;10.00;9.10;;;18.70;1.00;;;;;;5048657;28;20454;-56
2022/07/24 02:18:27;;;;;;;10.47;9.40;;;18.70;1.00;;;;;;5049742;28;20576;-56
2022/07/24 02:20:53;;;;;;;10.33;9.33;;;;;;;;;;5046857;28;20454;-56
2022/07/24 02:23:20;;;;;;;9.40;8.60;;;;;;;;;;5047481;28;20254;-55
2022/07/24 02:25:47;;;;;;;9.10;8.30;;;18.60;1.00;;;;;;5047800;28;20537;-56
2022/07/24 02:28:13;;;;;;;9.60;8.80;;;18.50;1.00;;;;;;5047336;28;20445;-55
2022/07/24 02:30:39;;;;;;;9.60;8.60;;;;;;;;;;5048905;28;20852;-56
2022/07/24 02:33:05;;;;;;;9.30;8.33;;;;;;;;;;5049621;28;21102;-56
2022/07/24 02:35:31;;;;;;;9.90;9.00;;;;;;;;;;5050110;28;20578;-55
2022/07/24 02:37:56;;;;;;;9.80;8.80;;;18.70;1.00;;;;;;5053132;28;20851;-56
2022/07/24 02:40:22;;;;;;;8.60;7.87;;;;;;;;;;5061268;28;20532;-55
2022/07/24 02:42:48;;;;;;;10.40;9.33;;;;;;;;;;5048994;28;20212;-56
2022/07/24 02:45:14;;;;;;;9.97;9.07;;;18.40;1.00;;;;;;5047270;28;20604;-56
2022/07/24 02:47:51;;;;;;;9.13;8.23;;;18.30;1.00;;;;;;5044947;28;22271;-56
2022/07/24 02:50:18;;;;;;;9.53;8.53;;;18.70;1.00;;;;;;5043996;28;20195;-56
2022/07/24 02:52:44;;;;;;;9.13;8.43;;;;;;;;;;5039492;28;20588;-56
2022/07/24 02:55:10;;;;;;;12.40;8.93;;;18.50;1.00;;;;;;5042920;28;21295;-57
2022/07/24 02:57:36;;;;;;;10.37;9.17;;;18.50;1.00;;;;;;5047443;28;20455;-55
2022/07/24 03:00:04;;;;;;;8.30;7.57;;;18.40;1.00;;;;;;5047644;28;20200;-55
2022/07/24 03:02:30;;;;;;;10.30;9.37;;;;;;;;;;5046698;28;20204;-56
2022/07/24 03:04:56;;;;;;;9.13;8.23;;;18.30;1.00;;;;;;5050531;28;20442;-56
2022/07/24 03:07:22;;;;;;;11.00;8.57;;;;;;;;;;5046957;28;20942;-55
2022/07/24 03:09:48;;;;;;;8.67;7.97;;;18.40;1.00;;;;;;5049873;28;20447;-56
2022/07/24 03:12:13;;;;;;;8.57;7.80;;;18.20;1.00;;;;;;5045339;28;20477;-57
2022/07/24 03:14:39;;;;;;;8.43;7.73;;;;;;;;;;5048971;28;20218;-56
2022/07/24 03:17:05;;;;;;;10.00;8.93;;;;;;;;;;5046579;28;20522;-57
2022/07/24 03:19:31;;;;;;;10.07;9.03;;;;;;;;;;5049936;28;20450;-55
2022/07/24 03:21:57;;;;;;;9.67;8.87;;;;;;;;;;5043355;28;20543;-56
2022/07/24 03:24:23;;;;;;;8.73;8.03;;;;;;;;;;5048348;28;20482;-56
2022/07/24 03:26:49;;;;;;;10.20;8.80;;;;;;;;;;5044097;28;20458;-55
2022/07/24 03:29:15;;;;;;;9.50;8.60;;;;;;;;;;5047245;28;20451;-56
2022/07/24 03:31:41;;;;;;;9.20;8.40;;;;;;;;;;5046691;28;20474;-55
2022/07/24 03:34:07;;;;;;;8.70;8.00;;;;;;;;;;5048789;28;20492;-56
2022/07/24 03:36:33;;;;;;;9.47;8.57;;;;;;;;;;5047243;28;21006;-56
2022/07/24 03:38:59;;;;;;;9.87;9.07;;;18.30;1.00;;;;;;5044745;28;20461;-55
2022/07/24 03:41:25;;;;;;;12.53;9.33;;;;;;;;;;5047760;28;20450;-56
2022/07/24 03:43:51;;;;;;;9.10;8.40;;;;;;;;;;5047778;28;20184;-56
2022/07/24 03:46:17;;;;;;;10.03;8.13;;;;;;;;;;5047910;28;20964;-56
2022/07/24 03:48:43;;;;;;;9.30;8.50;;;;;;;;;;5045415;28;20457;-56
2022/07/24 03:51:08;;;;;;;8.43;7.73;;;18.30;1.00;;;;;;5045977;28;20450;-56
2022/07/24 03:53:34;;;;;;;9.40;8.60;;;;;;;;;;5046945;28;20454;-55
2022/07/24 03:56:08;;;;;;;9.63;8.63;;;18.20;1.00;;;;;;5049877;28;20527;-56
2022/07/24 03:58:34;;;;;;;10.00;9.10;;;;;;;;;;5046179;28;20493;-56
2022/07/24 04:01:00;;;;;;;8.90;8.10;;;;;;;;;;5045097;28;20478;-57
2022/07/24 04:03:26;;;;;;;9.83;9.00;;;17.60;1.00;;;;;;5047201;28;20527;-56
2022/07/24 04:05:51;;;;;;;10.03;9.13;;;18.10;1.00;;;;;;5045056;28;21447;-56
2022/07/24 04:08:17;;;;;;;10.40;9.50;;;17.80;1.00;;;;;;5045063;28;20195;-56
2022/07/24 04:10:43;;;;;;;10.67;8.33;;;;;;;;;;5047323;28;20191;-56
2022/07/24 04:13:09;;;;;;;10.27;9.37;;;;;;;;;;5046634;28;20717;-56
2022/07/24 04:15:35;;;;;;;9.70;8.80;;;;;;;;;;5048075;28;20446;-56
2022/07/24 04:18:01;;;;;;;9.53;8.73;;;;;;;;;;5049185;28;20543;-54
2022/07/24 04:20:27;;;;;;;11.20;9.23;;;;;;;;;;5048972;28;20565;-56
2022/07/24 04:22:53;;;;;;;9.60;8.80;;;;;;;;;;5044507;28;21081;-55
2022/07/24 04:25:19;;;;;;;10.73;9.70;;;;;;;;;;5046317;28;20449;-56
2022/07/24 04:27:46;;;;;;;9.93;9.03;;;;;;;;;;5045612;28;20979;-55
2022/07/24 04:30:12;;;;;;;11.67;10.50;;;;;;;;;;5046676;28;20500;-56
2022/07/24 04:32:38;;;;;;;9.90;9.03;;;18.50;1.00;;;;;;5047612;28;20827;-56
2022/07/24 04:35:05;;;;;;;10.37;9.47;;;18.50;1.00;;;;;;5047465;28;20446;-56
2022/07/24 04:37:31;;;;;;;9.80;8.83;;;;;;;;;;5038989;28;20704;-56
2022/07/24 04:39:57;;;;;;;10.13;9.23;;;;;;;;;;5047201;28;20450;-56
2022/07/24 04:42:23;;;;;;;10.53;9.40;;;18.50;1.00;;;;;;5047717;28;20971;-56
2022/07/24 04:44:49;;;;;;;10.57;9.47;;;;;;;;;;5047114;28;20439;-55
2022/07/24 04:47:15;;;;;;;10.33;9.23;;;;;;;;;;5046605;28;20187;-56
2022/07/24 04:49:41;;;;;;;11.30;10.17;;;18.70;1.00;;;;;;5050419;28;20442;-56
2022/07/24 04:52:07;;;;;;;10.93;9.93;;;;;;;;;;5051063;28;21077;-55
2022/07/24 04:54:33;;;;;;;10.37;9.27;;;;;;;;;;5051163;28;20476;-56
2022/07/24 04:56:59;;;;;;;10.40;9.40;;;;;;;;;;5051120;28;20446;-57
2022/07/24 04:59:25;;;;;;;11.17;10.17;;;18.80;1.00;;;;;;5051903;28;20504;-56
2022/07/24 05:01:51;;;;;;;11.33;10.13;;;;;;;;;;5047279;28;20469;-55
2022/07/24 05:04:16;;;;;;;10.43;9.43;;;19.20;1.00;;;;;;5051734;28;20222;-55
2022/07/24 05:06:42;;;;;;;11.17;10.27;;;;;;;;;;5048497;28;20453;-57
2022/07/24 05:09:08;;;;;;;11.23;10.13;;;19.40;1.00;;;;;;5050485;28;20572;-55
2022/07/24 05:11:33;;;;;;;11.63;10.63;;;19.40;1.00;;;;;;5050464;28;20532;-56
2022/07/24 05:14:00;;;;;;;11.33;10.30;;;19.50;1.00;;;;;;5050924;28;20192;-56
2022/07/24 05:16:26;;;;;;;10.53;9.53;;;;;;;;;;5050582;28;20191;-56
2022/07/24 05:18:51;;;;;;;9.80;8.80;;;19.90;1.00;;;;;;5049810;28;20421;-57
2022/07/24 05:21:17;;;;;;;11.83;9.03;;;;;;;;;;5049981;28;20541;-56
2022/07/24 05:23:43;;;;;;;17.53;10.60;;;;;;;;;;5050983;28;20230;-55
2022/07/24 05:26:09;;;;;;;12.60;11.37;;;19.80;1.00;;;;;;5056866;28;20972;-55
2022/07/24 05:28:35;;;;;;;11.53;10.40;;;;;;;;;;5053407;28;20457;-57
2022/07/24 05:31:01;;;;;;;10.70;9.60;;;;;;;;;;5051124;28;20192;-56
2022/07/24 05:33:27;;;;;;;11.50;10.30;;;;;;;;;;5049003;28;20496;-55
2022/07/24 05:35:53;;;;;;;11.03;10.03;;;;;;;;;;5048535;28;20465;-56
2022/07/24 05:38:19;;;;;;;11.87;10.77;;;;;;;;;;5054352;28;20593;-55
2022/07/24 05:40:45;;;;;;;10.57;9.57;;;;;;;;;;5049153;28;20457;-56
2022/07/24 05:43:10;;;;;;;10.20;9.30;;;20.40;1.00;;;;;;5048585;28;20516;-57
2022/07/24 05:45:36;;;;;;;11.03;9.80;;;;;;;;;;5048037;28;20450;-56
2022/07/24 05:48:02;;;;;;;10.43;9.53;;;20.50;1.00;;;;;;5046338;28;20224;-57
2022/07/24 05:50:28;;;;;;;10.73;9.43;;;;;;;;;;5051207;28;20796;-56
2022/07/24 05:52:54;;;;;;;10.33;9.43;;;;;;;;;;5052142;28;20577;-56
2022/07/24 05:55:20;;;;;;;10.50;9.50;;;;;;;;;;5047521;28;20454;-57
2022/07/24 05:57:46;;;;;;;9.90;9.07;;;20.80;1.00;;;;;;5050213;28;20529;-56
2022/07/24 06:00:14;;;;;;;11.37;10.33;;;21.20;1.00;;;;;;5050652;28;20537;-57
2022/07/24 06:02:40;;;;;;;10.30;9.40;;;21.20;1.00;;;;;;5044467;28;20475;-56
2022/07/24 06:05:06;;;;;;;10.73;9.67;;;;;;;;;;5045004;28;20446;-56
2022/07/24 06:07:32;;;;;;;10.37;9.47;;;21.20;1.00;;;;;;5047626;28;20516;-56
2022/07/24 06:09:57;;;;;;;11.10;9.30;;;21.20;1.00;;;;;;5050045;28;21027;-57
2022/07/24 06:12:23;;;;;;;10.00;9.10;;;21.40;1.00;;;;;;5052303;28;20196;-57
2022/07/24 06:14:49;;;;;;;10.77;8.63;;;21.40;1.00;;;;;;5048615;28;20200;-56
2022/07/24 06:17:14;;;;;;;9.70;8.90;;;21.80;1.00;;;;;;5047317;28;20187;-57
2022/07/24 06:19:40;;;;;;;9.27;8.40;;;;;;;;;;5047560;28;20192;-57
2022/07/24 06:22:06;;;;;;;9.20;8.30;;;;;;;;;;5050663;28;20822;-57
2022/07/24 06:24:32;;;;;;;9.63;8.83;;;;;;;;;;5048829;28;20459;-57
2022/07/24 06:26:58;;;;;;;10.03;9.13;;;22.00;1.00;;;;;;5046835;28;20532;-56
2022/07/24 06:29:23;;;;;;;10.20;9.30;;;22.20;1.00;;;;;;5048219;28;20446;-57
2022/07/24 06:31:49;;;;;;;8.77;8.00;;;;;;;;;;5048425;28;20247;-56
2022/07/24 06:34:15;;;;;;;10.17;9.17;;;22.20;1.00;;;;;;5048421;28;20192;-57
2022/07/24 06:36:41;;;;;;;9.37;8.17;;;;;;;;;;5055207;28;20442;-57
2022/07/24 06:39:06;;;;;;;9.73;8.83;;;22.30;1.00;;;;;;5049870;28;20188;-56
2022/07/24 06:41:32;;;;;;;8.90;8.10;;;22.60;1.00;;;;;;5046853;28;20457;-56
2022/07/24 06:43:59;;;;;;;8.70;7.90;;;22.80;1.00;;;;;;5049615;28;20184;-57
2022/07/24 06:46:25;;;;;;;9.23;8.40;;;23.00;1.00;;;;;;5048688;28;20195;-56
2022/07/24 06:48:51;;;;;;;8.63;7.80;;;;;;;;;;5043756;28;20446;-56
2022/07/24 06:51:17;;;;;;;8.33;7.63;;;;;;;;;;5047981;28;20784;-56
2022/07/24 06:53:45;;;;;;;8.40;7.60;;;23.30;1.00;;;;;;5047825;28;20482;-56
2022/07/24 06:56:10;;;;;;;7.57;6.90;;;23.00;1.00;;;;;;5047763;28;20461;-61
2022/07/24 06:58:36;;;;;;;7.13;6.47;;;22.90;1.00;;;;;;5048773;28;20454;-57
2022/07/24 07:01:01;;;;;;;6.77;6.17;;;22.90;1.00;;;;;;5047612;28;20553;-56
2022/07/24 07:03:27;;;;;;;6.60;5.10;;;23.00;1.00;;;;;;5048872;28;20215;-57
2022/07/24 07:05:53;;;;;;;5.50;5.10;;;;;;;;;;5048859;28;20187;-56
2022/07/24 07:08:18;;;;;;;5.37;4.97;;;23.10;1.00;;;;;;5048430;28;20195;-55
2022/07/24 07:10:44;;;;;;;4.50;4.10;;;23.10;1.00;;;;;;5052639;28;20951;-57
2022/07/24 07:13:10;;;;;;;4.73;4.23;;;;;;;;;;5048668;28;20187;-56
2022/07/24 07:15:36;;;;;;;4.80;4.30;;;;;;;;;;5053474;28;20184;-56
2022/07/24 07:18:02;;;;;;;4.93;4.63;;;23.80;1.00;;;;;;5047297;28;20466;-57
2022/07/24 07:20:28;;;;;;;5.63;4.90;;;;;;;;;;5047491;28;20816;-55
2022/07/24 07:22:53;;;;;;;5.27;4.77;;;24.00;1.00;;;;;;5048123;28;20214;-56
2022/07/24 07:25:19;;;;;;;4.23;3.83;;;24.00;1.00;;;;;;5049095;28;20916;-55
2022/07/24 07:27:45;;;;;;;5.47;4.97;;;;;;;;;;5047260;28;20192;-55
2022/07/24 07:30:12;;;;;;;6.60;4.10;;;;;;;;;;5047863;28;20254;-56
2022/07/24 07:32:38;;;;;;;4.90;3.73;;;24.50;1.00;;;;;;5047100;28;20481;-55
2022/07/24 07:35:04;;;;;;;4.13;3.53;;;;;;;;;;5048413;28;20512;-57
2022/07/24 07:37:30;;;;;;;3.70;3.40;;;;;;;;;;5047778;28;20510;-56
2022/07/24 07:39:57;;;;;;;4.37;3.97;;;24.60;1.00;;;;;;5047909;28;20544;-56
2022/07/24 07:42:23;;;;;;;5.00;4.60;;;24.50;1.00;;;;;;5048273;28;20441;-56
2022/07/24 07:44:49;;;;;;;4.70;3.20;;;;;;;;;;5048446;28;20450;-57
2022/07/24 07:47:15;;;;;;;3.60;3.30;;;24.90;1.00;;;;;;5047291;28;20192;-56
2022/07/24 07:49:40;;;;;;;2.73;2.53;;;25.20;1.00;;;;;;5048481;28;20534;-55
2022/07/24 07:52:06;;;;;;;3.97;2.60;;;24.80;1.00;;;;;;5045662;28;20454;-56
2022/07/24 07:54:32;;;;;;;5.33;3.03;;;24.80;1.00;;;;;;5048651;28;20267;-56
2022/07/24 07:56:57;;;;;;;4.43;2.33;;;24.90;1.00;;;;;;5046692;28;20188;-56
2022/07/24 07:59:23;;;;;;;1.30;1.20;;;25.10;1.00;;;;;;5050521;28;20457;-57
2022/07/24 08:01:49;;;;;;;2.70;2.50;;;25.10;1.00;;;;;;5048013;28;20645;-56
2022/07/24 08:04:15;;;;;;;3.40;3.07;;;;;;;;;;5048907;28;20192;-55
2022/07/24 08:06:41;;;;;;;6.93;2.50;;;;;;;;;;5046828;28;20195;-55
2022/07/24 08:09:07;;;;;;;6.00;2.40;;;25.20;1.00;;;;;;5045055;28;20447;-57
2022/07/24 08:11:33;;;;;;;2.90;2.57;;;;;;;;;;5048653;28;20438;-56
2022/07/24 08:13:59;;;;;;;4.73;3.10;;;;;;;;;;5048132;28;20211;-55
2022/07/24 08:16:25;;;;;;;3.87;3.30;;;;;;;;;;5053153;28;20460;-58
2022/07/24 08:18:51;;;;;;;2.63;2.40;;;25.30;1.00;;;;;;5048525;28;20442;-56
2022/07/24 08:21:18;;;;;;;3.17;2.87;;;;;;;;;;5048919;28;20454;-55
2022/07/24 08:23:45;;;;;;;3.40;2.50;;;25.60;1.00;;;;;;5067304;28;20298;-56
2022/07/24 08:26:11;;;;;;;2.70;2.50;;;25.60;1.00;;;;;;5050544;28;21227;-56
2022/07/24 08:28:37;;;;;;;4.23;2.77;;;25.70;1.00;;;;;;5052799;28;20840;-55
2022/07/24 08:31:06;;;;;;;2.73;2.40;;;;;;;;;;5052875;28;20421;-56
2022/07/24 08:33:31;;;;;;;2.50;2.30;;;25.90;1.00;;;;;;5052315;28;20517;-56
2022/07/24 08:35:57;;;;;;;2.57;2.37;;;25.80;1.00;;;;;;5049899;28;20482;-56
2022/07/24 08:38:22;;;;;;;2.77;2.40;;;25.80;1.00;;;;;;5052777;28;20650;-55
2022/07/24 08:40:49;;;;;;;2.60;2.40;;;25.40;1.00;;;;;;5052520;28;20196;-56
2022/07/24 08:43:15;;;;;;;2.43;2.23;;;25.40;1.00;;;;;;5052202;28;20216;-55
2022/07/24 08:45:42;;;;;;;3.00;2.67;;;25.70;1.00;;;;;;5051913;28;20760;-56
2022/07/24 08:48:09;;;;;;;2.67;2.13;;;25.90;1.00;;;;;;5052894;28;20179;-56
2022/07/24 08:50:39;;;;;;;2.60;2.40;;;26.30;1.00;;;;;;5051098;28;20525;-56
2022/07/24 08:53:05;;;;;;;3.10;2.40;;;26.40;1.00;;;;;;5052586;28;20545;-56
2022/07/24 08:55:32;;;;;;;2.20;2.00;;;27.10;1.00;;;;;;5050863;28;20970;-56
2022/07/24 08:57:59;;;;;;;4.10;2.97;;;27.00;1.00;;;;;;5053286;28;20446;-55
2022/07/24 09:00:27;;;;;;;4.23;2.50;;;27.00;1.00;;;;;;5050108;28;20450;-57
2022/07/24 09:02:53;;;;;;;3.70;2.90;;;;;;;;;;5064515;28;20477;-56
2022/07/24 09:05:19;;;;;;;2.70;2.50;;;26.60;1.00;;;;;;5048773;28;20446;-57
2022/07/24 09:07:45;;;;;;;3.23;2.20;;;27.00;1.00;;;;;;5053704;28;20808;-55
2022/07/24 09:10:13;;;;;;;4.60;2.60;;;27.30;1.00;;;;;;5060167;28;20491;-55
2022/07/24 09:12:41;;;;;;;2.93;2.60;;;27.70;1.00;;;;;;5053476;28;20192;-56
2022/07/24 09:15:26;;;;;;;2.60;2.40;;;27.90;1.00;;;;;;5072265;28;20516;-56
2022/07/24 09:17:54;;;;;;;9.00;3.43;;;27.60;1.00;;;;;;5049764;28;20493;-56
2022/07/24 09:20:21;;;;;;;3.60;2.70;;;27.40;1.00;;;;;;5054432;28;20827;-56
2022/07/24 09:22:48;;;;;;;2.70;2.50;;;27.30;1.00;;;;;;5048636;28;20498;-56
2022/07/24 09:25:22;;;;;;;3.60;2.73;;;27.50;1.00;;;;;;5051498;28;20461;-55
2022/07/24 09:27:52;;;;;;;3.57;2.23;;;27.70;1.00;;;;;;5052321;28;20438;-56
2022/07/24 09:30:23;;;;;;;4.90;2.63;;;27.60;1.00;;;;;;5050401;28;20967;-55
2022/07/24 09:32:54;;;;;;;4.10;3.00;;;27.80;1.00;;;;;;5054275;28;20477;-55
2022/07/24 09:35:23;;;;;;;3.40;2.53;;;27.90;1.00;;;;;;5067127;28;20442;-54
2022/07/24 09:37:56;;;;;;;2.90;2.60;;;28.10;1.00;;;;;;5055328;28;20456;-55
2022/07/24 09:40:29;;;;;;;3.90;2.80;;;28.20;1.00;;;;;;5052477;28;20456;-56
2022/07/24 09:43:11;;;;;;;2.90;2.60;;;28.10;1.00;;;;;;5049520;28;20474;-55
2022/07/24 09:45:54;;;;;;;3.73;2.57;;;27.70;1.00;;;;;;5051063;28;20466;-55
2022/07/24 09:48:36;;;;;;;2.67;2.47;;;27.90;1.00;;;;;;5065455;28;20530;-56
2022/07/24 09:51:15;;;;;;;3.33;2.93;;;28.30;1.00;;;;;;5076777;28;20446;-55
2022/07/24 09:53:42;;;;;;;2.67;2.47;;;28.30;1.00;;;;;;5045698;28;20438;-56
2022/07/24 09:56:08;;;;;;;2.40;2.20;;;;;;;;;;5048437;28;20491;-56
2022/07/24 09:58:55;;;;;;;2.60;2.40;;;28.40;1.00;;;;;;5048834;28;20537;-56
2022/07/24 10:01:24;;;;;;;2.60;2.40;;;28.20;1.00;;;;;;5047751;28;20462;-55
2022/07/24 10:03:53;;;;;;;4.03;2.90;;;28.10;1.00;;;;;;5045703;28;20580;-56
2022/07/24 10:06:25;;;;;;;3.83;2.73;;;28.20;1.00;;;;;;5056767;28;20460;-55
2022/07/24 10:08:52;;;;;;;3.03;2.83;;;28.00;1.00;;;;;;5068244;28;20437;-56
2022/07/24 10:11:18;;;;;;;3.27;3.00;;;28.00;1.00;;;;;;5050656;28;20482;-56
2022/07/24 10:13:45;;;;;;;3.50;3.03;;;28.20;1.00;;;;;;5047714;28;20453;-55
2022/07/24 10:16:13;;;;;;;2.70;2.50;;;28.40;1.00;;;;;;5057716;28;20545;-56
2022/07/24 10:18:54;;;;;;;2.80;2.60;;;28.30;1.00;;;;;;5049652;28;21938;-56
2022/07/24 10:21:20;;;;;;;2.50;2.30;;;;;;;;;;5056450;28;20421;-56
2022/07/24 10:24:06;;;;;;;3.90;2.97;;;28.70;1.00;;;;;;5052488;28;20469;-57
2022/07/24 10:26:32;;;;;;;2.77;2.57;;;28.90;1.00;;;;;;5050971;28;20990;-56
2022/07/24 10:29:12;;;;;;;3.63;2.33;;;28.90;1.00;;;;;;5056970;28;20500;-56
2022/07/24 10:31:43;;;;;;;2.97;2.77;;;29.10;1.00;;;;;;5052984;28;20224;-54
2022/07/24 10:34:40;;;;;;;2.87;2.40;;;28.80;1.00;;;;;;5047822;28;21034;-56
2022/07/24 10:37:24;;;;;;;3.40;2.60;;;28.90;1.00;;;;;;5046569;28;20504;-56
2022/07/24 10:39:49;;;;;;;2.90;2.70;;;29.00;1.00;;;;;;5047883;28;20420;-56
2022/07/24 10:42:16;;;;;;;3.03;2.50;;;29.10;1.00;;;;;;5050139;28;20582;-55
2022/07/24 10:44:44;;;;;;;3.27;2.97;;;28.80;1.00;;;;;;5048197;28;20180;-55
2022/07/24 10:47:16;;;;;;;2.83;2.63;;;28.60;1.00;;;;;;5050239;28;20500;-56
2022/07/24 10:49:46;;;;;;;3.73;2.60;;;28.60;1.00;;;;;;5048365;28;20447;-57
2022/07/24 10:52:29;;;;;;;3.07;2.87;;;28.40;1.00;;;;;;5047384;28;20569;-56
2022/07/24 10:55:29;;;;;;;3.00;2.70;;;28.60;1.00;;;;;;5046583;28;20457;-58
2022/07/24 10:57:57;;;;;;;3.50;3.07;;;28.60;1.00;;;;;;5048173;28;20454;-54
2022/07/24 11:00:26;;;;;;;3.03;2.73;;;28.70;1.00;;;;;;5049509;28;20592;-55
2022/07/24 11:03:02;;;;;;;2.93;2.73;;;28.60;1.00;;;;;;5050056;28;20474;-55
2022/07/24 11:05:36;;;;;;;6.37;2.93;;;28.80;1.00;;;;;;5049282;28;20452;-54
2022/07/24 11:08:18;;;;;;;3.13;2.80;;;29.00;1.00;;;;;;5047875;28;20462;-56
2022/07/24 11:10:51;;;;;;;3.70;2.80;;;29.00;1.00;;;;;;5050020;28;20491;-55
2022/07/24 11:13:32;;;;;;;3.10;2.80;;;29.20;1.00;;;;;;5046820;28;20481;-57
2022/07/24 11:16:10;;;;;;;2.70;2.40;;;29.10;1.00;;;;;;5049639;28;20428;-56
2022/07/24 11:18:59;;;;;;;3.67;2.97;;;29.00;1.00;;;;;;5048423;28;20450;-56
2022/07/24 11:21:36;;;;;;;2.50;2.17;;;28.80;1.00;;;;;;5047527;28;20949;-57
2022/07/24 11:24:31;;;;;;;3.20;2.70;;;28.70;1.00;;;;;;5047567;28;20448;-56
2022/07/24 11:26:59;;;;;;;2.80;2.60;;;28.80;1.00;;;;;;5041704;28;20533;-55
2022/07/24 11:29:27;;;;;;;3.23;2.80;;;28.70;1.00;;;;;;5049355;28;20442;-56
2022/07/24 11:32:10;;;;;;;2.73;2.33;;;28.70;1.00;;;;;;5049077;28;20497;-56
2022/07/24 11:34:37;;;;;;;2.80;2.60;;;28.80;1.00;;;;;;5047648;28;20588;-56
2022/07/24 11:37:04;;;;;;;4.07;2.90;;;28.80;1.00;;;;;;5049037;28;20474;-55
2022/07/24 11:39:35;;;;;;;3.23;2.93;;;28.70;1.00;;;;;;5048880;28;20719;-55
2022/07/24 11:42:03;;;;;;;3.33;2.73;;;28.60;1.00;;;;;;5047611;28;20493;-55
2022/07/24 11:44:51;;;;;;;5.53;2.53;;;28.70;1.00;;;;;;5047892;28;21053;-55
2022/07/24 11:47:17;;;;;;;3.27;2.97;;;;;;;;;;5046685;28;20443;-56
2022/07/24 11:49:54;;;;;;;2.40;2.20;;;29.20;1.00;;;;;;5049425;28;20519;-56
2022/07/24 11:52:31;;;;;;;3.53;3.23;;;29.40;1.00;;;;;;5049296;28;20524;-56
2022/07/24 11:54:59;;;;;;;3.47;3.17;;;29.40;1.00;;;;;;5050149;28;20948;-56
2022/07/24 11:57:33;;;;;;;3.10;2.80;;;29.20;1.00;;;;;;5064921;28;20458;-56
2022/07/24 12:00:00;;;;;;;3.87;3.00;;;29.00;1.00;;;;;;5048260;28;20499;-56
2022/07/24 12:02:26;;;;;;;3.60;3.30;;;29.10;1.00;;;;;;5048678;28;20462;-55
2022/07/24 12:04:52;;;;;;;3.90;3.23;;;29.30;1.00;;;;;;5049377;28;20489;-56
2022/07/24 12:07:21;;;;;;;3.30;2.80;;;29.40;1.00;;;;;;5050009;28;20900;-56
2022/07/24 12:09:55;;;;;;;4.20;2.60;;;29.50;1.00;;;;;;5048483;28;20466;-56
2022/07/24 12:12:22;;;;;;;3.00;2.80;;;29.70;1.00;;;;;;5048821;28;20478;-56
2022/07/24 12:14:51;;;;;;;3.30;2.70;;;29.90;1.00;;;;;;5049318;28;20438;-56
2022/07/24 12:17:17;;;;;;;2.80;2.60;;;;;;;;;;5049431;28;20868;-56
2022/07/24 12:19:51;;;;;;;3.03;2.50;;;29.40;1.00;;;;;;5047462;28;20470;-55
2022/07/24 12:22:18;;;;;;;3.10;2.80;;;29.50;1.00;;;;;;5048394;28;20993;-56
2022/07/24 12:24:44;;;;;;;2.60;2.40;;;29.50;1.00;;;;;;5048959;28;20541;-56
2022/07/24 12:27:10;;;;;;;3.00;2.73;;;;;;;;;;5048226;28;20680;-55
2022/07/24 12:29:45;;;;;;;2.80;2.60;;;29.40;1.00;;;;;;5049526;28;20648;-56
2022/07/24 12:32:17;;;;;;;3.27;2.63;;;29.30;1.00;;;;;;5048123;28;20487;-56
2022/07/24 12:34:45;;;;;;;2.97;2.73;;;29.30;1.00;;;;;;5048551;28;20458;-55
2022/07/24 12:37:18;;;;;;;4.13;3.43;;;29.20;1.00;;;;;;5054446;28;20450;-56
2022/07/24 12:39:51;;;;;;;3.00;2.80;;;29.40;1.00;;;;;;5068886;28;20437;-56
2022/07/24 12:42:18;;;;;;;3.10;2.80;;;29.30;1.00;;;;;;5054669;28;20816;-56
2022/07/24 12:44:45;;;;;;;4.77;3.27;;;29.60;1.00;;;;;;5048453;28;20648;-54
2022/07/24 12:47:13;;;;;;;3.13;2.83;;;29.50;1.00;;;;;;5048518;28;20527;-55
2022/07/24 12:49:45;;;;;;;3.50;2.70;;;29.70;1.00;;;;;;5048960;28;20446;-56
2022/07/24 12:52:23;;;;;;;3.70;3.00;;;30.80;1.00;;;;;;5047707;28;20478;-55
2022/07/24 12:54:51;;;;;;;3.33;2.93;;;29.90;1.00;;;;;;5048797;28;20793;-56
2022/07/24 12:57:21;;;;;;;4.73;3.00;;;29.70;1.00;;;;;;5054748;28;20969;-56
2022/07/24 12:59:48;;;;;;;2.80;2.60;;;29.80;1.00;;;;;;5048259;28;20448;-56
2022/07/24 13:02:20;;;;;;;2.80;2.57;;;29.80;1.00;;;;;;5048957;28;20754;-55
2022/07/24 13:04:47;;;;;;;3.20;2.40;;;29.70;1.00;;;;;;5046553;28;20442;-56
2022/07/24 13:07:15;;;;;;;3.33;3.03;;;29.80;1.00;;;;;;5060872;28;20962;-57
2022/07/24 13:09:42;;;;;;;3.23;2.93;;;;;;;;;;5047379;28;20460;-57
2022/07/24 13:12:08;;;;;;;3.60;2.80;;;;;;;;;;5049607;28;20442;-56
2022/07/24 13:14:34;;;;;;;3.10;2.90;;;29.70;1.00;;;;;;5052190;28;20427;-56
2022/07/24 13:17:04;;;;;;;2.60;2.40;;;29.50;1.00;;;;;;5049236;28;20888;-56
2022/07/24 13:19:30;;;;;;;4.17;3.30;;;29.40;1.00;;;;;;5050040;28;20446;-56
2022/07/24 13:21:56;;;;;;;4.77;2.83;;;29.60;1.00;;;;;;5050442;28;20515;-56
2022/07/24 13:24:22;;;;;;;3.27;2.57;;;;;;;;;;5051838;28;20215;-56
2022/07/24 13:26:48;;;;;;;2.87;2.60;;;30.00;1.00;;;;;;5051259;28;22244;-57
2022/07/24 13:29:14;;;;;;;2.73;2.53;;;;;;;;;;5051091;28;20525;-56
2022/07/24 13:31:41;;;;;;;2.90;2.70;;;29.90;1.00;;;;;;5051065;28;20517;-56